Terminal Aerodrome Forecast
Issued by NWS

Home | Current Version | Previous Version | Text Only | Print | Product List | Glossary On
Versions: 1 2 3 4 5 6 7 8 9 10 11 12 13 14 15 16 17 18 19 20 21 22 23 24 25 26 27 28 29
000
FTUS44 KBMX 270526 CCA
TAFTOI
TAF COR
KTOI 270526Z 2706/2806 VRB03KT 5SM BR SCT003 SCT250
     FM270800 VRB02KT 3SM BR BKN004 BKN012
      TEMPO 2710/2712 1/2SM FG BKN001
     FM271300 VRB04KT 4SM BR BKN007
     FM271600 12007KT P6SM SCT035 SCT110
     FM271900 13008KT P6SM VCTS BKN035CB=

USA.gov is the U.S. government's official web portal to all federal, state and local government web resources and services.